Atlanta, Indiana
Current Conditions -  °F | °C
As of 7:35 PM on Thursday 27 Nov 2014 (Local Time) from KTYQ Reporting Station
Light Snow Light Snow  
Wind Chill: 19°   Ceiling: 3100
Heat Index: 26°   Visibility: 7mi
Dew Point: 21°   Wind: 7mph
Humidity: 79%   Direction: 280°W
Pressure: 30.39"   Gusts: NA
Location:  40.22°N, 86.03°W
Report Text: KTYQ 280035Z AUTO 28006KT 7SM -SN SCT014 BKN031 OVC039 M03/M06 A3039 RMK AO2 T10311062
Loading
Personal Weather Stations






























Interactive Weather Map New forecast layout! Learn more

10-Day Weather Forecast

Advertisements
Track Severe Weather on mobile